Map

Track Data

SID SEASON NUMBER BASIN SUBBASIN NAME ISO_TIME NATURE LAT LON WMO_WIND WMO_PRES WMO_AGENCY TRACK_TYPE DIST2LAND LANDFALL IFLAG USA_AGENCY USA_ATCF_ID USA_LAT USA_LON USA_RECORD USA_STATUS USA_WIND USA_PRES USA_SSHS USA_R34_NE USA_R34_SE USA_R34_SW USA_R34_NW USA_R50_NE USA_R50_SE USA_R50_SW USA_R50_NW USA_R64_NE USA_R64_SE USA_R64_SW USA_R64_NW USA_POCI USA_ROCI USA_RMW USA_EYE TOKYO_LAT TOKYO_LON TOKYO_GRADE TOKYO_WIND TOKYO_PRES TOKYO_R50_DIR TOKYO_R50_LONG TOKYO_R50_SHORT TOKYO_R30_DIR TOKYO_R30_LONG TOKYO_R30_SHORT TOKYO_LAND CMA_LAT CMA_LON CMA_CAT CMA_WIND CMA_PRES HKO_LAT HKO_LON HKO_CAT HKO_WIND HKO_PRES NEWDELHI_LAT NEWDELHI_LON NEWDELHI_GRADE NEWDELHI_WIND NEWDELHI_PRES NEWDELHI_CI NEWDELHI_DP NEWDELHI_POCI REUNION_LAT REUNION_LON REUNION_TYPE REUNION_WIND REUNION_PRES REUNION_TNUM REUNION_CI REUNION_RMW REUNION_R34_NE REUNION_R34_SE REUNION_R34_SW REUNION_R34_NW REUNION_R50_NE REUNION_R50_SE REUNION_R50_SW REUNION_R50_NW REUNION_R64_NE REUNION_R64_SE REUNION_R64_SW REUNION_R64_NW BOM_LAT BOM_LON BOM_TYPE BOM_WIND BOM_PRES BOM_TNUM BOM_CI BOM_RMW BOM_R34_NE BOM_R34_SE BOM_R34_SW BOM_R34_NW BOM_R50_NE BOM_R50_SE BOM_R50_SW BOM_R50_NW BOM_R64_NE BOM_R64_SE BOM_R64_SW BOM_R64_NW BOM_ROCI BOM_POCI BOM_EYE BOM_POS_METHOD BOM_PRES_METHOD NADI_LAT NADI_LON NADI_CAT NADI_WIND NADI_PRES WELLINGTON_LAT WELLINGTON_LON WELLINGTON_WIND WELLINGTON_PRES DS824_LAT DS824_LON DS824_STAGE DS824_WIND DS824_PRES TD9636_LAT TD9636_LON TD9636_STAGE TD9636_WIND TD9636_PRES TD9635_LAT TD9635_LON TD9635_WIND TD9635_PRES TD9635_ROCI NEUMANN_LAT NEUMANN_LON NEUMANN_CLASS NEUMANN_WIND NEUMANN_PRES MLC_LAT MLC_LON MLC_CLASS MLC_WIND MLC_PRES USA_GUST BOM_GUST BOM_GUST_PER REUNION_GUST REUNION_GUST_PER USA_SEAHGT USA_SEARAD_NE USA_SEARAD_SE USA_SEARAD_SW USA_SEARAD_NW STORM_SPEED STORM_DIR
1988213N11262 1988 43 EP MM HECTOR 1988-07-30 18:00:00 TS 11.3000 -98.3000 25 1012 hurdat_epa main 515 515 O_________O___ hurdat_epa EP081988 11.3000 -98.3000 TD 25 1012 -1 11.3000 -98.3000 1 25 14 275
1988213N11262 1988 43 EP MM HECTOR 1988-07-30 21:00:00 TS 11.3644 -99.0341 main 531 531 P_________P___ EP081988 11.3676 -99.0249 TD 25 1011 -1 11.3548 -99.0617 1 25 15 274
1988213N11262 1988 43 EP MM HECTOR 1988-07-31 00:00:00 TS 11.4000 -99.8000 25 1011 hurdat_epa main 558 558 O_________O___ hurdat_epa EP081988 11.4000 -99.8000 TD 25 1011 -1 11.4000 -99.8000 1 25 15 271
1988213N11262 1988 43 EP MM HECTOR 1988-07-31 03:00:00 TS 11.3974 -100.602 main 589 589 P_________P___ EP081988 11.3852 -100.638 TD 27 1010 -1 11.4340 -100.497 1 26 15 271
1988213N11262 1988 43 EP MM HECTOR 1988-07-31 06:00:00 TS 11.4194 -101.339 30 1010 hurdat_epa main 617 617 O_________P___ hurdat_epa EP081988 11.4000 -101.400 TD 30 1010 -1 11.4778 -101.155 1 27 13 275
1988213N11262 1988 43 EP MM HECTOR 1988-07-31 09:00:00 TS 11.5178 -101.889 main 628 622 P_________P___ EP081988 11.5045 -101.923 TD 30 1009 -1 11.5576 -101.787 1 28 11 285
1988213N11262 1988 43 EP MM HECTOR 1988-07-31 12:00:00 TS 11.7000 -102.400 30 1009 hurdat_epa main 630 626 O_________O___ hurdat_epa EP081988 11.7000 -102.400 TD 30 1009 -1 11.7000 -102.400 1 30 12 292
1988213N11262 1988 43 EP MM HECTOR 1988-07-31 15:00:00 TS 11.9689 -103.034 main 627 620 P_________P___ EP081988 11.9776 -103.042 TD 32 1007 -1 11.9428 -103.010 1 32 14 295
1988213N11262 1988 43 EP MM HECTOR 1988-07-31 18:00:00 TS 12.2867 -103.677 35 1006 hurdat_epa main 625 620 O_________P___ hurdat_epa EP081988 12.3000 -103.700 TS 35 1006 0 12.2467 -103.607 1 35 13 298
1988213N11262 1988 43 EP MM HECTOR 1988-07-31 21:00:00 TS 12.5997 -104.238 main 622 613 P_________P___ EP081988 12.6072 -104.250 TS 37 1004 0 12.5772 -104.201 1 37 13 299
1988213N11262 1988 43 EP MM HECTOR 1988-08-01 00:00:00 TS 12.9000 -104.800 40 1003 hurdat_epa main 616 609 O_________O___ hurdat_epa EP081988 12.9000 -104.800 TS 40 1003 0 12.9000 -104.800 2 40 13 296
1988213N11262 1988 43 EP MM HECTOR 1988-08-01 03:00:00 TS 13.1622 -105.435 main 605 605 P_________P___ EP081988 13.1575 -105.443 TS 42 1001 0 13.1761 -105.414 2 42 14 292
1988213N11262 1988 43 EP MM HECTOR 1988-08-01 06:00:00 TS 13.4092 -106.084 45 1000 hurdat_epa main 614 609 O_________P___ hurdat_epa EP081988 13.4000 -106.100 TS 45 1000 0 13.4369 -106.035 2 45 13 292
1988213N11262 1988 43 EP MM HECTOR 1988-08-01 09:00:00 TS 13.6627 -106.691 main 618 618 P_________P___ EP081988 13.6572 -106.700 TS 47 998 0 13.6792 -106.664 2 47 13 293
1988213N11262 1988 43 EP MM HECTOR 1988-08-01 12:00:00 TS 13.9000 -107.300 50 996 hurdat_epa main 638 636 O_________O___ hurdat_epa EP081988 13.9000 -107.300 TS 50 996 0 13.9000 -107.300 2 50 13 290
1988213N11262 1988 43 EP MM HECTOR 1988-08-01 15:00:00 TS 14.1133 -107.947 main 659 659 P_________P___ EP081988 14.1149 -107.943 TS 52 994 0 14.1086 -107.959 2 53 13 287
1988213N11262 1988 43 EP MM HECTOR 1988-08-01 18:00:00 TS 14.2987 -108.606 55 993 hurdat_epa main 681 681 O_________P___ hurdat_epa EP081988 14.3000 -108.600 TS 55 993 0 14.2949 -108.623 2 57 13 286
1988213N11262 1988 43 EP MM HECTOR 1988-08-01 21:00:00 TS 14.4689 -109.262 main 711 711 P_________P___ EP081988 14.4724 -109.258 TS 60 989 0 14.4587 -109.275 2 61 13 284
1988213N11262 1988 43 EP MM HECTOR 1988-08-02 00:00:00 TS 14.6000 -109.900 65 985 hurdat_epa main 747 747 O_________O___ hurdat_epa EP081988 14.6000 -109.900 HU 65 985 1 14.6000 -109.900 3 65 12 279
1988213N11262 1988 43 EP MM HECTOR 1988-08-02 03:00:00 TS 14.6605 -110.514 main 786 786 P_________P___ EP081988 14.6499 -110.523 HU 72 977 1 14.6925 -110.488 3 73 12 276
1988213N11262 1988 43 EP MM HECTOR 1988-08-02 06:00:00 TS 14.7173 -111.087 80 970 hurdat_epa main 832 832 O_________P___ hurdat_epa EP081988 14.7000 -111.100 HU 80 970 1 14.7692 -111.046 3 82 11 279
1988213N11262 1988 43 EP MM HECTOR 1988-08-02 09:00:00 TS 14.8246 -111.607 main 864 864 P_________P___ EP081988 14.8123 -111.615 HU 90 965 2 14.8614 -111.582 3 91 10 286
1988213N11262 1988 43 EP MM HECTOR 1988-08-02 12:00:00 TS 15.0000 -112.100 100 960 hurdat_epa main 892 892 O_________O___ hurdat_epa EP081988 15.0000 -112.100 HU 100 960 3 15.0000 -112.100 4 100 11 295
1988213N11262 1988 43 EP MM HECTOR 1988-08-02 15:00:00 TS 15.2748 -112.602 main 892 878 P_________P___ EP081988 15.2849 -112.600 HU 107 954 3 15.2444 -112.610 4 105 11 301
1988213N11262 1988 43 EP MM HECTOR 1988-08-02 18:00:00 TS 15.5836 -113.102 115 948 hurdat_epa main 878 870 O_________P___ hurdat_epa EP081988 15.6000 -113.100 HU 115 948 4 15.5342 -113.107 4 110 11 302
1988213N11262 1988 43 EP MM HECTOR 1988-08-02 21:00:00 TS 15.8622 -113.595 main 869 868 P_________P___ EP081988 15.8723 -113.593 HU 117 943 4 15.8320 -113.601 4 115 11 298
1988213N11262 1988 43 EP MM HECTOR 1988-08-03 00:00:00 TS 16.1000 -114.100 120 939 hurdat_epa main 873 868 O_________O___ hurdat_epa EP081988 16.1000 -114.100 HU 120 939 4 16.1000 -114.100 4 120 11 292
1988213N11262 1988 43 EP MM HECTOR 1988-08-03 03:00:00 TS 16.2661 -114.645 main 881 881 P_________P___ EP081988 16.2650 -114.650 HU 122 937 4 16.2696 -114.631 4 121 11 286
1988213N11262 1988 43 EP MM HECTOR 1988-08-03 06:00:00 TS 16.4018 -115.192 125 935 hurdat_epa main 908 908 O_________P___ hurdat_epa EP081988 16.4000 -115.200 HU 125 935 4 16.4074 -115.166 4 122 11 285
1988213N11262 1988 43 EP MM HECTOR 1988-08-03 09:00:00 TS 16.5365 -115.704 main 931 929 P_________P___ EP081988 16.5348 -115.708 HU 125 935 4 16.5415 -115.693 4 123 10 287
1988213N11262 1988 43 EP MM HECTOR 1988-08-03 12:00:00 TS 16.7000 -116.200 125 935 hurdat_epa main 949 948 O_________O___ hurdat_epa EP081988 16.7000 -116.200 HU 125 935 4 16.7000 -116.200 4 125 10 292
1988213N11262 1988 43 EP MM HECTOR 1988-08-03 15:00:00 TS 16.9324 -116.702 main 969 969 P_________P___ EP081988 16.9350 -116.715 HU 122 936 4 16.9246 -116.664 4 122 11 298
1988213N11262 1988 43 EP MM HECTOR 1988-08-03 18:00:00 TS 17.1941 -117.177 120 938 hurdat_epa main 985 985 O_________P___ hurdat_epa EP081988 17.2000 -117.200 HU 120 938 4 17.1766 -117.108 4 120 10 301
1988213N11262 1988 43 EP MM HECTOR 1988-08-03 21:00:00 TS 17.4474 -117.587 main 995 986 P_________P___ EP081988 17.4497 -117.600 HU 117 941 4 17.4403 -117.548 4 117 9 303
1988213N11262 1988 43 EP MM HECTOR 1988-08-04 00:00:00 TS 17.7000 -118.000 115 944 hurdat_epa main 992 990 O_________O___ hurdat_epa EP081988 17.7000 -118.000 HU 115 944 4 17.7000 -118.000 4 115 10 301
1988213N11262 1988 43 EP MM HECTOR 1988-08-04 03:00:00 TS 17.9562 -118.485 main 999 999 P_________P___ EP081988 17.9575 -118.485 HU 112 947 3 17.9523 -118.486 4 111 11 298
1988213N11262 1988 43 EP MM HECTOR 1988-08-04 06:00:00 TS 18.1987 -118.996 110 950 hurdat_epa main 1018 1017 O_________P___ hurdat_epa EP081988 18.2000 -119.000 HU 110 950 3 18.1947 -118.985 4 107 11 295
1988213N11262 1988 43 EP MM HECTOR 1988-08-04 09:00:00 TS 18.4149 -119.504 main 1039 1039 P_________P___ EP081988 18.4149 -119.508 HU 105 954 3 18.4147 -119.492 4 103 10 293
1988213N11262 1988 43 EP MM HECTOR 1988-08-04 12:00:00 TS 18.6000 -120.000 100 959 hurdat_epa main 1062 1062 O_________O___ hurdat_epa EP081988 18.6000 -120.000 HU 100 959 3 18.6000 -120.000 4 100 10 291
1988213N11262 1988 43 EP MM HECTOR 1988-08-04 15:00:00 TS 18.7671 -120.457 main 1087 1087 P_________P___ EP081988 18.7722 -120.443 HU 95 962 2 18.7518 -120.500 4 96 9 288
1988213N11262 1988 43 EP MM HECTOR 1988-08-04 18:00:00 TS 18.8917 -120.925 90 966 hurdat_epa main 1113 1113 O_________P___ hurdat_epa EP081988 18.9000 -120.900 HU 90 966 2 18.8670 -121.000 4 92 10 282
1988213N11262 1988 43 EP MM HECTOR 1988-08-04 21:00:00 TS 18.9666 -121.457 main 1157 1157 P_________P___ EP081988 18.9725 -121.443 HU 87 969 2 18.9487 -121.500 4 88 10 276
1988213N11262 1988 43 EP MM HECTOR 1988-08-05 00:00:00 TS 19.0000 -122.000 85 973 hurdat_epa main 1200 1200 O_________O___ hurdat_epa EP081988 19.0000 -122.000 HU 85 973 2 19.0000 -122.000 4 85 10 273
1988213N11262 1988 43 EP MM HECTOR 1988-08-05 03:00:00 TS 19.0136 -122.507 main 1234 1234 P_________P___ EP081988 19.0073 -122.508 HU 80 975 1 19.0325 -122.504 4 81 9 271
1988213N11262 1988 43 EP MM HECTOR 1988-08-05 06:00:00 TS 19.0093 -123.002 75 977 hurdat_epa main 1268 1268 O_________P___ hurdat_epa EP081988 19.0000 -123.000 HU 75 977 1 19.0371 -123.008 4 77 9 270
1988213N11262 1988 43 EP MM HECTOR 1988-08-05 09:00:00 TS 19.0113 -123.507 main 1302 1302 P_________P___ EP081988 19.0074 -123.507 HU 72 979 1 19.0231 -123.507 4 73 9 269
1988213N11262 1988 43 EP MM HECTOR 1988-08-05 12:00:00 TS 19.0000 -124.000 70 981 hurdat_epa main 1336 1336 O_________O___ hurdat_epa EP081988 19.0000 -124.000 HU 70 981 1 19.0000 -124.000 4 70 9 267
1988213N11262 1988 43 EP MM HECTOR 1988-08-05 15:00:00 TS 18.9598 -124.458 main 1371 1371 P_________P___ EP081988 18.9498 -124.450 HU 67 983 1 18.9899 -124.482 4 68 9 265
1988213N11262 1988 43 EP MM HECTOR 1988-08-05 18:00:00 TS 18.9180 -124.914 65 985 hurdat_epa main 1408 1408 O_________P___ hurdat_epa EP081988 18.9000 -124.900 HU 65 985 1 18.9719 -124.957 4 67 9 267
1988213N11262 1988 43 EP MM HECTOR 1988-08-05 21:00:00 TS 18.9163 -125.401 main 1445 1445 P_________P___ EP081988 18.9074 -125.392 HU 65 986 1 18.9430 -125.429 4 66 9 269
1988213N11262 1988 43 EP MM HECTOR 1988-08-06 00:00:00 TS 18.9000 -125.900 65 987 hurdat_epa main 1483 1483 O_________O___ hurdat_epa EP081988 18.9000 -125.900 HU 65 987 1 18.9000 -125.900 4 65 10 264
1988213N11262 1988 43 EP MM HECTOR 1988-08-06 03:00:00 TS 18.8133 -126.400 main 1529 1529 P_________P___ EP081988 18.8074 -126.408 HU 65 987 1 18.8309 -126.375 4 66 10 259
1988213N11262 1988 43 EP MM HECTOR 1988-08-06 06:00:00 TS 18.7124 -126.888 65 987 hurdat_epa main 1576 1576 O_________P___ hurdat_epa EP081988 18.7000 -126.900 HU 65 987 1 18.7495 -126.850 4 67 9 260
1988213N11262 1988 43 EP MM HECTOR 1988-08-06 09:00:00 TS 18.6488 -127.344 main 1615 1615 P_________P___ EP081988 18.6423 -127.350 HU 67 985 1 18.6684 -127.325 4 68 9 263
1988213N11262 1988 43 EP MM HECTOR 1988-08-06 12:00:00 TS 18.6000 -127.800 70 984 hurdat_epa main 1654 1654 O_________O___ hurdat_epa EP081988 18.6000 -127.800 HU 70 984 1 18.6000 -127.800 4 70 9 264
1988213N11262 1988 43 EP MM HECTOR 1988-08-06 15:00:00 TS 18.5478 -128.288 main 1702 1702 P_________P___ EP081988 18.5425 -128.300 HU 72 982 1 18.5639 -128.250 4 71 9 264
1988213N11262 1988 43 EP MM HECTOR 1988-08-06 18:00:00 TS 18.5103 -128.776 75 981 hurdat_epa main 1743 1743 O_________P___ hurdat_epa EP081988 18.5000 -128.800 HU 75 981 1 18.5413 -128.705 4 72 9 267
1988213N11262 1988 43 EP MM HECTOR 1988-08-06 21:00:00 TS 18.5055 -129.216 main 1776 1776 P_________P___ EP081988 18.4996 -129.227 HU 75 980 1 18.5231 -129.182 4 73 9 269
1988213N11262 1988 43 EP MM HECTOR 1988-08-07 00:00:00 TS 18.5000 -129.700 75 979 hurdat_epa main 1818 1818 O_________O___ hurdat_epa EP081988 18.5000 -129.700 HU 75 979 1 18.5000 -129.700 4 75 10 267
1988213N11262 1988 43 EP MM HECTOR 1988-08-07 03:00:00 TS 18.4585 -130.316 main 1869 1869 P_________P___ EP081988 18.4576 -130.328 HU 75 979 1 18.4613 -130.282 4 73 12 265
1988213N11262 1988 43 EP MM HECTOR 1988-08-07 06:00:00 TS 18.4037 -130.976 75 980 hurdat_epa main 1935 1935 O_________P___ hurdat_epa EP081988 18.4000 -131.000 HU 75 980 1 18.4150 -130.905 4 72 12 265
1988213N11262 1988 43 EP MM HECTOR 1988-08-07 09:00:00 TS 18.3525 -131.588 main 1987 1987 P_________P___ EP081988 18.3497 -131.600 HU 72 981 1 18.3612 -131.551 4 71 12 265
1988213N11262 1988 43 EP MM HECTOR 1988-08-07 12:00:00 TS 18.3000 -132.200 70 982 hurdat_epa main 2046 2046 O_________O___ hurdat_epa EP081988 18.3000 -132.200 HU 70 982 1 18.3000 -132.200 4 70 12 265
1988213N11262 1988 43 EP MM HECTOR 1988-08-07 15:00:00 TS 18.2469 -132.842 main 2104 2104 P_________P___ EP081988 18.2574 -132.850 HU 70 983 1 18.2151 -132.817 4 68 12 264
1988213N11262 1988 43 EP MM HECTOR 1988-08-07 18:00:00 TS 18.1816 -133.484 70 984 hurdat_epa main 2166 2166 O_________P___ hurdat_epa EP081988 18.2000 -133.500 HU 70 984 1 18.1264 -133.436 4 67 12 262
1988213N11262 1988 43 EP MM HECTOR 1988-08-07 21:00:00 TS 18.0814 -134.085 main 2183 2121 P_________P___ EP081988 18.0921 -134.093 HU 67 985 1 18.0495 -134.061 4 66 12 261
1988213N11262 1988 43 EP MM HECTOR 1988-08-08 00:00:00 TS 18.0000 -134.700 65 986 hurdat_epa main 2121 2059 O_________O___ hurdat_epa EP081988 18.0000 -134.700 HU 65 986 1 18.0000 -134.700 4 65 12 265
1988213N11262 1988 43 EP MM HECTOR 1988-08-08 03:00:00 TS 17.9780 -135.385 main 2048 1985 P_________P___ EP081988 17.9775 -135.392 HU 62 988 0 17.9796 -135.365 4 62 13 270
1988213N11262 1988 43 EP MM HECTOR 1988-08-08 06:00:00 TS 17.9974 -136.086 60 990 hurdat_epa main 1975 1912 O_________P___ hurdat_epa EP081988 18.0000 -136.100 TS 60 990 0 17.9895 -136.043 4 60 13 272
1988213N11262 1988 43 EP MM HECTOR 1988-08-08 09:00:00 TS 18.0278 -136.749 main 1912 1837 P_________P___ EP081988 18.0272 -136.758 TS 57 992 0 18.0296 -136.724 4 57 13 275
1988213N11262 1988 43 EP MM HECTOR 1988-08-08 12:00:00 TS 18.1000 -137.400 55 994 hurdat_epa main 1837 1773 O_________O___ hurdat_epa EP081988 18.1000 -137.400 TS 55 994 0 18.1000 -137.400 2 55 13 279
1988213N11262 1988 43 EP MM HECTOR 1988-08-08 15:00:00 TS 18.2336 -138.051 main 1762 1697 P_________P___ EP081988 18.2423 -138.050 TS 50 996 0 18.2076 -138.053 2 51 13 283
1988213N11262 1988 43 EP MM HECTOR 1988-08-08 18:00:00 TS 18.3853 -138.700 45 999 hurdat_epa main 1697 1632 O_________P___ hurdat_epa EP081988 18.4000 -138.700 TS 45 999 0 18.3413 -138.699 2 47 13 283
1988213N11262 1988 43 EP MM HECTOR 1988-08-08 21:00:00 TS 18.5059 -139.344 main 1632 1558 P_________P___ EP081988 18.5147 -139.343 TS 42 1002 0 18.4794 -139.346 2 43 13 280
1988213N11262 1988 43 EP CP HECTOR 1988-08-09 00:00:00 TS 18.6000 -140.000 40 1005 hurdat_epa main 1558 1483 O_________O___ hurdat_epa EP081988 18.6000 -140.000 TS 40 1005 0 18.6000 -140.000 2 40 13 277
1988213N11262 1988 43 EP CP HECTOR 1988-08-09 03:00:00 TS 18.6551 -140.696 main 1483 1410 P_________P___ EP081988 18.6574 -140.700 TS 37 1005 0 18.6479 -140.675 2 37 13 274
1988213N11262 1988 43 EP CP HECTOR 1988-08-09 06:00:00 TS 18.6956 -141.390 35 1005 hurdat_epa main 1410 1347 O_________P___ hurdat_epa EP081988 18.7000 -141.400 TS 35 1005 0 18.6791 -141.355 2 35 13 273
1988213N11262 1988 43 EP CP HECTOR 1988-08-09 09:00:00 TS 18.7319 -142.053 main 1337 1273 P_________P___ EP081988 18.7347 -142.058 TS 32 1008 -1 18.7207 -142.032 2 32 12 275
1988213N11262 1988 43 EP CP HECTOR 1988-08-09 12:00:00 TS 18.8000 -142.700 30 1011 hurdat_epa main 1273 1209 O_________O___ hurdat_epa EP081988 18.8000 -142.700 TD 30 1011 -1 18.8000 -142.700 1 30 12 279
1988213N11262 1988 43 EP CP HECTOR 1988-08-09 15:00:00 TS 18.9312 -143.348 main 1209 1134 P_________P___ EP081988 18.9305 -143.347 TD 27 1011 -1 18.9343 -143.354 1 27 13 284
1988213N11262 1988 43 EP CP HECTOR 1988-08-09 18:00:00 TS 19.1000 -144.000 25 1012 hurdat_epa main 1134 O_________O___ hurdat_epa EP081988 19.1000 -144.000 TD 25 1012 -1 19.1000 -144.000 1 25 13 285

About IBTrACS Database

This database is a web-friendly format of International Best Track Archive for Climate Stewardship (IBTrACS), a global best track data archive curated by NOAA dating back to 1842.

Updated: 2021-10-21